createdAt,value
2018-06-20T00:00:13.609Z,6.23
2018-06-20T00:02:40.728Z,5.80
2018-06-20T00:05:07.837Z,5.80
2018-06-20T00:07:35.035Z,5.83
2018-06-20T00:10:02.139Z,5.53
2018-06-20T00:12:29.265Z,5.93
2018-06-20T00:14:56.381Z,5.60
2018-06-20T00:17:23.509Z,5.70
2018-06-20T00:19:50.594Z,6.03
2018-06-20T00:22:17.752Z,6.07
2018-06-20T00:24:44.968Z,5.83
2018-06-20T00:27:12.075Z,5.80
2018-06-20T00:29:39.193Z,5.80
2018-06-20T00:32:06.293Z,6.63
2018-06-20T00:34:33.453Z,5.93
2018-06-20T00:37:00.589Z,5.83
2018-06-20T00:39:27.697Z,5.63
2018-06-20T00:41:54.789Z,6.00
2018-06-20T00:44:21.897Z,6.03
2018-06-20T00:46:49.053Z,6.47
2018-06-20T00:49:16.157Z,5.73
2018-06-20T00:51:43.269Z,6.30
2018-06-20T00:54:10.368Z,5.93
2018-06-20T00:56:37.457Z,6.13
2018-06-20T00:59:04.594Z,6.60
2018-06-20T01:01:31.772Z,6.30
2018-06-20T01:03:58.883Z,6.30
2018-06-20T01:06:25.980Z,6.33
2018-06-20T01:08:54.649Z,6.27
2018-06-20T01:11:21.929Z,6.10
2018-06-20T01:13:49.129Z,6.37
2018-06-20T01:16:16.217Z,6.17
2018-06-20T01:18:43.346Z,5.70
2018-06-20T01:21:10.829Z,5.60
2018-06-20T01:23:38.049Z,6.00
2018-06-20T01:26:05.193Z,6.27
2018-06-20T01:28:32.289Z,6.27
2018-06-20T01:30:59.397Z,5.83
2018-06-20T01:33:26.480Z,6.43
2018-06-20T01:35:53.680Z,6.23
2018-06-20T01:38:20.782Z,5.90
2018-06-20T01:40:47.888Z,5.87
2018-06-20T01:43:14.977Z,5.70
2018-06-20T01:45:42.072Z,6.10
2018-06-20T01:48:09.513Z,6.20
2018-06-20T01:50:36.653Z,6.07
2018-06-20T01:53:03.765Z,6.17
2018-06-20T01:55:30.994Z,6.10
2018-06-20T01:57:58.025Z,5.77
2018-06-20T02:00:25.856Z,6.33
2018-06-20T02:02:53.416Z,5.83
2018-06-20T02:05:20.688Z,6.20
2018-06-20T02:07:48.152Z,5.80
2018-06-20T02:10:15.245Z,6.30
2018-06-20T02:12:42.340Z,6.30
2018-06-20T02:15:09.568Z,5.77
2018-06-20T02:17:36.672Z,5.93
2018-06-20T02:20:03.777Z,6.30
2018-06-20T02:22:30.885Z,5.93
2018-06-20T02:24:58.117Z,5.90
2018-06-20T02:27:25.254Z,6.40
2018-06-20T02:29:52.352Z,6.07
2018-06-20T02:32:19.450Z,6.30
2018-06-20T02:34:46.657Z,5.80
2018-06-20T02:37:13.792Z,5.90
2018-06-20T02:39:40.999Z,6.13
2018-06-20T02:42:08.076Z,5.97
2018-06-20T02:44:35.175Z,6.20
2018-06-20T02:47:02.301Z,5.70
2018-06-20T02:49:29.394Z,6.07
2018-06-20T02:51:56.500Z,6.13
2018-06-20T02:54:23.599Z,6.53
2018-06-20T02:56:50.689Z,6.43
2018-06-20T02:59:17.796Z,6.70
2018-06-20T03:01:44.981Z,6.50
2018-06-20T03:04:12.093Z,6.17
2018-06-20T03:06:39.209Z,6.30
2018-06-20T03:09:12.724Z,6.30
2018-06-20T03:11:39.835Z,6.10
2018-06-20T03:14:06.974Z,6.63
2018-06-20T03:16:34.080Z,6.80
2018-06-20T03:19:01.173Z,5.87
2018-06-20T03:21:28.272Z,6.70
2018-06-20T03:23:55.361Z,6.37
2018-06-20T03:26:22.524Z,5.97
2018-06-20T03:28:49.612Z,6.10
2018-06-20T03:31:17.122Z,6.00
2018-06-20T03:33:44.241Z,6.20
2018-06-20T03:36:11.337Z,6.33
2018-06-20T03:38:38.441Z,6.40
2018-06-20T03:41:05.570Z,6.60
2018-06-20T03:43:32.660Z,6.43
2018-06-20T03:45:59.757Z,6.80
2018-06-20T03:48:26.862Z,6.87
2018-06-20T03:50:53.990Z,6.60
2018-06-20T03:53:21.080Z,6.50
2018-06-20T03:55:48.262Z,6.37
2018-06-20T03:58:15.361Z,6.23
2018-06-20T04:00:42.454Z,6.20
2018-06-20T04:03:09.557Z,6.60
2018-06-20T04:05:36.653Z,6.37
2018-06-20T04:08:03.777Z,6.17
2018-06-20T04:10:30.871Z,6.00
2018-06-20T04:12:57.970Z,6.40
2018-06-20T04:15:25.073Z,6.13
2018-06-20T04:17:52.167Z,6.13
2018-06-20T04:20:19.256Z,6.50
2018-06-20T04:22:46.337Z,6.20
2018-06-20T04:25:13.553Z,6.83
2018-06-20T04:27:40.725Z,6.20
2018-06-20T04:30:07.926Z,6.00
2018-06-20T04:32:35.057Z,6.87
2018-06-20T04:35:03.009Z,6.00
2018-06-20T04:37:30.101Z,6.77
2018-06-20T04:39:57.201Z,6.17
2018-06-20T04:42:24.301Z,6.43
2018-06-20T04:44:51.393Z,6.10
2018-06-20T04:47:18.521Z,6.47
2018-06-20T04:49:45.793Z,6.60
2018-06-20T04:52:12.900Z,7.03
2018-06-20T04:54:40.010Z,6.13
2018-06-20T04:57:07.122Z,6.67
2018-06-20T04:59:34.245Z,7.07
2018-06-20T05:02:01.334Z,7.50
2018-06-20T05:04:28.436Z,6.70
2018-06-20T05:06:55.535Z,6.40
2018-06-20T05:09:22.760Z,7.40
2018-06-20T05:11:50.689Z,7.53
2018-06-20T05:14:18.390Z,7.30
2018-06-20T05:16:45.479Z,7.80
2018-06-20T05:19:12.587Z,8.07
2018-06-20T05:21:39.674Z,7.90
2018-06-20T05:24:06.994Z,7.70
2018-06-20T05:26:34.229Z,7.70
2018-06-20T05:29:01.325Z,7.53
2018-06-20T05:31:28.422Z,7.87
2018-06-20T05:33:57.682Z,7.70
2018-06-20T05:36:24.889Z,7.97
2018-06-20T05:38:52.057Z,8.00
2018-06-20T05:41:19.216Z,8.10
2018-06-20T05:43:46.380Z,7.40
2018-06-20T05:46:13.508Z,7.77
2018-06-20T05:48:40.641Z,8.20
2018-06-20T05:51:07.779Z,6.90
2018-06-20T05:53:35.013Z,8.00
2018-06-20T05:56:02.122Z,7.47
2018-06-20T05:58:29.230Z,7.57
2018-06-20T06:00:56.336Z,7.97
2018-06-20T06:03:23.556Z,7.50
2018-06-20T06:05:55.217Z,7.50
2018-06-20T06:08:22.337Z,7.60
2018-06-20T06:10:49.507Z,7.20
2018-06-20T06:13:16.674Z,7.70
2018-06-20T06:15:43.760Z,7.57
2018-06-20T06:18:10.852Z,7.30
2018-06-20T06:20:38.062Z,7.33
2018-06-20T06:23:05.224Z,6.80
2018-06-20T06:25:32.377Z,6.67
2018-06-20T06:27:59.481Z,6.90
2018-06-20T06:30:26.572Z,6.57
2018-06-20T06:32:53.673Z,7.60
2018-06-20T06:35:20.796Z,6.40
2018-06-20T06:37:47.949Z,6.47
2018-06-20T06:40:14.988Z,7.50
2018-06-20T06:42:42.076Z,7.07
2018-06-20T06:45:09.188Z,7.00
2018-06-20T06:47:36.341Z,7.07
2018-06-20T06:50:03.528Z,6.77
2018-06-20T06:52:30.543Z,6.60
2018-06-20T06:54:57.652Z,7.00
2018-06-20T06:57:24.912Z,6.27
2018-06-20T06:59:54.156Z,6.33
2018-06-20T07:02:21.313Z,6.47
2018-06-20T07:04:48.537Z,6.40
2018-06-20T07:07:15.641Z,6.53
2018-06-20T07:09:42.732Z,6.63
2018-06-20T07:12:09.864Z,6.50
2018-06-20T07:14:36.961Z,6.67
2018-06-20T07:17:04.057Z,6.70
2018-06-20T07:19:31.542Z,6.23
2018-06-20T07:21:58.649Z,5.80
2018-06-20T07:24:25.889Z,6.47
2018-06-20T07:26:52.925Z,6.80
2018-06-20T07:29:20.036Z,6.13
2018-06-20T07:31:47.123Z,7.10
2018-06-20T07:34:14.302Z,6.97
2018-06-20T07:36:41.357Z,6.33
2018-06-20T07:39:08.762Z,7.90
2018-06-20T07:41:36.214Z,6.93
2018-06-20T07:44:03.337Z,7.00
2018-06-20T07:46:30.502Z,6.40
2018-06-20T07:48:57.596Z,6.03
2018-06-20T07:51:24.697Z,6.30
2018-06-20T07:53:51.794Z,6.20
2018-06-20T07:56:18.889Z,6.63
2018-06-20T07:58:51.425Z,6.83
2018-06-20T08:01:29.681Z,6.13
2018-06-20T08:04:02.228Z,5.67
2018-06-20T08:06:34.757Z,5.93
2018-06-20T08:09:07.323Z,6.10
2018-06-20T08:11:39.960Z,5.60
2018-06-20T08:14:12.501Z,6.10
2018-06-20T08:16:45.029Z,5.40
2018-06-20T08:19:17.464Z,5.30
2018-06-20T08:21:44.561Z,4.50
2018-06-20T08:24:11.671Z,4.40
2018-06-20T08:26:38.824Z,3.50
2018-06-20T08:29:05.928Z,5.03
2018-06-20T08:31:33.066Z,4.10
2018-06-20T08:34:00.170Z,4.00
2018-06-20T08:36:27.282Z,4.37
2018-06-20T08:38:54.373Z,4.50
2018-06-20T08:41:21.497Z,4.10
2018-06-20T08:43:48.596Z,4.20
2018-06-20T08:46:15.753Z,4.70
2018-06-20T08:48:42.848Z,4.40
2018-06-20T08:51:09.933Z,4.67
2018-06-20T08:53:37.073Z,5.00
2018-06-20T08:56:04.173Z,4.43
2018-06-20T08:58:31.273Z,4.30
2018-06-20T09:01:00.444Z,4.50
2018-06-20T09:03:27.570Z,4.30
2018-06-20T09:06:00.215Z,4.27
2018-06-20T09:08:32.749Z,5.00
2018-06-20T09:11:05.336Z,5.37
2018-06-20T09:13:37.925Z,4.50
2018-06-20T09:16:10.501Z,4.30
2018-06-20T09:18:42.979Z,4.17
2018-06-20T09:21:10.076Z,4.70
2018-06-20T09:23:37.548Z,4.30
2018-06-20T09:26:04.708Z,4.00
2018-06-20T09:28:31.815Z,4.23
2018-06-20T09:30:59.065Z,4.00
2018-06-20T09:33:26.156Z,4.30
2018-06-20T09:35:53.265Z,4.40
2018-06-20T09:38:20.356Z,4.67
2018-06-20T09:40:47.477Z,4.30
2018-06-20T09:43:14.573Z,3.97
2018-06-20T09:45:41.697Z,4.47
2018-06-20T09:48:08.828Z,4.13
2018-06-20T09:50:41.349Z,4.27
2018-06-20T09:53:08.461Z,4.43
2018-06-20T09:55:35.573Z,4.27
2018-06-20T09:58:02.681Z,4.30
2018-06-20T10:00:35.314Z,4.33
2018-06-20T10:03:07.920Z,4.77
2018-06-20T10:05:40.609Z,3.93
2018-06-20T10:08:13.185Z,3.90
2018-06-20T10:10:45.649Z,3.90
2018-06-20T10:13:15.709Z,3.93
2018-06-20T10:15:42.772Z,4.10
2018-06-20T10:18:09.953Z,4.07
2018-06-20T10:20:37.089Z,3.80
2018-06-20T10:23:04.244Z,3.60
2018-06-20T10:25:31.337Z,4.03
2018-06-20T10:27:59.300Z,4.30
2018-06-20T10:30:26.408Z,3.70
2018-06-20T10:32:53.826Z,3.97
2018-06-20T10:35:21.207Z,3.93
2018-06-20T10:37:48.354Z,3.80
2018-06-20T10:40:15.470Z,3.43
2018-06-20T10:42:42.637Z,3.60
2018-06-20T10:45:15.202Z,3.93
2018-06-20T10:47:43.568Z,3.80
2018-06-20T10:50:11.238Z,3.67
2018-06-20T10:52:38.433Z,3.40
2018-06-20T10:55:05.689Z,3.57
2018-06-20T10:57:38.373Z,3.60
2018-06-20T11:00:10.845Z,3.00
2018-06-20T11:02:43.308Z,3.63
2018-06-20T11:05:15.873Z,3.57
2018-06-20T11:08:45.821Z,3.20
2018-06-20T11:11:18.386Z,3.13
2018-06-20T11:13:45.510Z,3.10
2018-06-20T11:16:12.653Z,3.67
2018-06-20T11:18:42.723Z,3.20
2018-06-20T11:21:09.816Z,3.23
2018-06-20T11:23:36.913Z,3.47
2018-06-20T11:26:04.024Z,3.30
2018-06-20T11:28:31.112Z,3.00
2018-06-20T11:30:58.234Z,3.37
2018-06-20T11:33:25.332Z,3.10
2018-06-20T11:35:52.553Z,3.00
2018-06-20T11:38:19.656Z,3.20
2018-06-20T11:40:53.273Z,3.20
2018-06-20T11:43:20.401Z,2.90
2018-06-20T11:45:52.977Z,2.60
2018-06-20T11:48:20.080Z,2.90
2018-06-20T11:50:47.231Z,3.07
2018-06-20T11:53:14.345Z,2.90
2018-06-20T11:55:43.476Z,2.90
2018-06-20T11:58:16.181Z,2.87
2018-06-20T12:00:48.732Z,2.70
2018-06-20T12:03:21.452Z,2.77
2018-06-20T12:05:54.005Z,3.30
2018-06-20T12:08:26.709Z,3.00
2018-06-20T12:10:59.445Z,3.03
2018-06-20T12:13:31.992Z,3.40
2018-06-20T12:16:04.601Z,2.97
2018-06-20T12:18:37.297Z,2.80
2018-06-20T12:21:09.853Z,2.97
2018-06-20T12:23:42.360Z,2.87
2018-06-20T12:26:14.866Z,2.70
2018-06-20T12:28:47.541Z,3.10
2018-06-20T12:31:20.031Z,2.60
2018-06-20T12:33:52.654Z,2.60
2018-06-20T12:36:25.190Z,2.40
2018-06-20T12:38:58.346Z,2.50
2018-06-20T12:41:30.916Z,2.57
2018-06-20T12:44:03.469Z,3.23
2018-06-20T12:46:34.504Z,2.40
2018-06-20T12:49:01.609Z,2.70
2018-06-20T12:51:28.693Z,2.33
2018-06-20T12:53:55.792Z,2.47
2018-06-20T12:56:22.904Z,2.23
2018-06-20T12:58:50.080Z,2.40
2018-06-20T13:01:17.190Z,2.30
2018-06-20T13:03:44.298Z,2.60
2018-06-20T13:06:11.385Z,2.63
2018-06-20T13:08:38.504Z,2.40
2018-06-20T13:11:05.616Z,2.30
2018-06-20T13:13:32.721Z,2.30
2018-06-20T13:15:59.807Z,2.23
2018-06-20T13:18:26.909Z,2.00
2018-06-20T13:20:54.000Z,2.43
2018-06-20T13:23:21.090Z,2.10
2018-06-20T13:25:48.215Z,2.33
2018-06-20T13:28:15.318Z,2.20
2018-06-20T13:30:46.053Z,2.20
2018-06-20T13:33:18.733Z,2.10
2018-06-20T13:35:51.378Z,2.00
2018-06-20T13:38:24.017Z,2.10
2018-06-20T13:41:27.849Z,1.80
2018-06-20T13:44:00.681Z,2.10
2018-06-20T13:46:33.192Z,1.90
2018-06-20T13:49:00.288Z,2.33
2018-06-20T13:51:27.385Z,2.00
2018-06-20T13:53:54.472Z,2.13
2018-06-20T13:56:21.658Z,1.97
2018-06-20T13:58:48.785Z,2.10
2018-06-20T14:01:15.897Z,2.10
2018-06-20T14:03:42.997Z,2.10
2018-06-20T14:06:10.109Z,1.83
2018-06-20T14:08:37.207Z,2.00
2018-06-20T14:11:04.296Z,2.07
2018-06-20T14:13:31.432Z,2.27
2018-06-20T14:15:58.573Z,2.07
2018-06-20T14:18:25.668Z,1.90
2018-06-20T14:20:58.195Z,2.20
2018-06-20T14:23:25.300Z,2.00
2018-06-20T14:25:52.408Z,1.90
2018-06-20T14:28:19.516Z,2.03
2018-06-20T14:30:52.210Z,2.00
2018-06-20T14:33:24.693Z,2.50
2018-06-20T14:35:57.317Z,2.07
2018-06-20T14:38:29.890Z,2.20
2018-06-20T14:41:28.536Z,2.40
2018-06-20T14:44:01.089Z,2.10
2018-06-20T14:46:30.129Z,1.90
2018-06-20T14:48:57.204Z,2.20
2018-06-20T14:51:24.292Z,1.90
2018-06-20T14:53:51.469Z,2.33
2018-06-20T14:56:18.827Z,2.30
2018-06-20T14:58:46.192Z,2.50
2018-06-20T15:01:13.513Z,2.10
2018-06-20T15:03:42.043Z,2.50
2018-06-20T15:06:09.317Z,2.10
2018-06-20T15:08:36.466Z,2.00
2018-06-20T15:11:03.559Z,2.30
2018-06-20T15:13:30.706Z,2.20
2018-06-20T15:16:02.153Z,2.20
2018-06-20T15:18:29.272Z,2.20
2018-06-20T15:20:56.437Z,2.20
2018-06-20T15:23:23.496Z,2.27
2018-06-20T15:25:56.125Z,1.80
2018-06-20T15:28:28.656Z,2.07
2018-06-20T15:31:01.260Z,1.97
2018-06-20T15:33:33.905Z,2.07
2018-06-20T15:37:08.046Z,2.10
2018-06-20T15:39:35.144Z,1.80
2018-06-20T15:42:02.241Z,2.17
2018-06-20T15:44:32.637Z,2.37
2018-06-20T15:47:03.319Z,2.40
2018-06-20T15:49:30.774Z,2.07
2018-06-20T15:52:00.067Z,2.10
2018-06-20T15:54:29.261Z,1.80
2018-06-20T15:56:56.380Z,1.80
2018-06-20T15:59:23.540Z,1.87
2018-06-20T16:01:51.033Z,2.00
2018-06-20T16:04:18.261Z,2.40
2018-06-20T16:06:45.389Z,2.03
2018-06-20T16:09:17.912Z,1.90
2018-06-20T16:11:45.085Z,2.07
2018-06-20T16:14:12.189Z,1.60
2018-06-20T16:16:39.301Z,2.13
2018-06-20T16:19:11.917Z,1.97
2018-06-20T16:21:44.629Z,1.97
2018-06-20T16:24:17.177Z,2.10
2018-06-20T16:26:49.873Z,2.10
2018-06-20T16:29:22.554Z,1.80
2018-06-20T16:31:49.695Z,2.20
2018-06-20T16:34:17.136Z,2.40
2018-06-20T16:36:44.316Z,1.87
2018-06-20T16:39:11.432Z,2.10
2018-06-20T16:41:38.533Z,2.00
2018-06-20T16:44:05.628Z,3.13
2018-06-20T16:46:32.770Z,2.80
2018-06-20T16:49:00.145Z,3.23
2018-06-20T16:51:27.211Z,2.77
2018-06-20T16:53:54.316Z,2.23
2018-06-20T16:56:21.452Z,2.13
2018-06-20T16:58:48.596Z,2.50
2018-06-20T17:01:21.355Z,1.90
2018-06-20T17:03:48.454Z,1.80
2018-06-20T17:06:15.664Z,2.07
2018-06-20T17:08:42.701Z,2.07
2018-06-20T17:11:09.807Z,1.80
2018-06-20T17:13:42.384Z,2.70
2018-06-20T17:16:14.978Z,2.03
2018-06-20T17:18:47.492Z,2.03
2018-06-20T17:21:20.036Z,6.67
2018-06-20T17:23:52.691Z,3.47
2018-06-20T17:26:19.794Z,3.30
2018-06-20T17:28:46.948Z,2.60
2018-06-20T17:31:14.136Z,2.73
2018-06-20T17:33:41.241Z,2.20
2018-06-20T17:36:08.321Z,1.60
2018-06-20T17:38:35.439Z,2.50
2018-06-20T17:41:02.619Z,3.60
2018-06-20T17:43:29.757Z,5.37
2018-06-20T17:45:58.054Z,3.43
2018-06-20T17:48:25.245Z,3.50
2018-06-20T17:50:52.373Z,3.13
2018-06-20T17:53:19.470Z,2.50
2018-06-20T17:55:46.579Z,2.93
2018-06-20T17:58:13.660Z,3.37
2018-06-20T18:01:17.646Z,3.30
2018-06-20T18:03:44.668Z,3.27
2018-06-20T18:06:17.316Z,2.90
2018-06-20T18:08:49.816Z,2.60
2018-06-20T18:11:21.306Z,2.63
2018-06-20T18:13:53.881Z,2.90
2018-06-20T18:16:26.495Z,2.43
2018-06-20T18:18:53.548Z,1.77
2018-06-20T18:21:20.662Z,2.13
2018-06-20T18:23:47.817Z,2.20
2018-06-20T18:26:14.932Z,2.23
2018-06-20T18:28:42.116Z,2.10
2018-06-20T18:31:09.221Z,2.10
2018-06-20T18:33:36.309Z,2.20
2018-06-20T18:36:03.404Z,1.83
2018-06-20T18:38:30.505Z,2.20
2018-06-20T18:40:57.597Z,1.80
2018-06-20T18:43:24.713Z,2.27
2018-06-20T18:45:51.797Z,2.20
2018-06-20T18:48:24.520Z,1.90
2018-06-20T18:50:51.618Z,2.00
2018-06-20T18:53:18.846Z,1.80
2018-06-20T18:55:45.960Z,1.80
2018-06-20T18:58:18.480Z,1.77
2018-06-20T19:00:51.052Z,2.03
2018-06-20T19:03:23.616Z,1.80
2018-06-20T19:05:56.305Z,1.83
2018-06-20T19:08:28.868Z,2.10
2018-06-20T19:10:56.123Z,2.00
2018-06-20T19:13:23.283Z,2.10
2018-06-20T19:15:50.420Z,1.77
2018-06-20T19:18:17.522Z,2.20
2018-06-20T19:20:44.639Z,2.00
2018-06-20T19:23:11.780Z,2.30
2018-06-20T19:25:39.064Z,2.10
2018-06-20T19:28:07.763Z,2.10
2018-06-20T19:30:34.845Z,1.80
2018-06-20T19:33:01.952Z,2.20
2018-06-20T19:35:29.097Z,2.90
2018-06-20T19:37:56.850Z,2.40
2018-06-20T19:40:24.009Z,2.90
2018-06-20T19:42:51.164Z,3.70
2018-06-20T19:45:18.236Z,2.57
2018-06-20T19:47:45.341Z,2.30
2018-06-20T19:50:12.484Z,2.40
2018-06-20T19:52:39.599Z,2.13
2018-06-20T19:55:06.694Z,2.13
2018-06-20T19:57:33.788Z,1.90
2018-06-20T20:00:00.886Z,2.10
2018-06-20T20:02:28.065Z,2.00
2018-06-20T20:04:55.307Z,2.70
2018-06-20T20:07:22.436Z,2.10
2018-06-20T20:09:49.715Z,2.00
2018-06-20T20:12:16.859Z,2.50
2018-06-20T20:14:44.053Z,2.80
2018-06-20T20:17:11.157Z,2.40
2018-06-20T20:19:38.261Z,2.47
2018-06-20T20:22:05.426Z,2.40
2018-06-20T20:24:32.568Z,2.40
2018-06-20T20:26:59.664Z,2.33
2018-06-20T20:29:26.808Z,2.40
2018-06-20T20:31:53.925Z,2.40
2018-06-20T20:34:21.068Z,2.50
2018-06-20T20:36:48.231Z,2.47
2018-06-20T20:39:15.301Z,2.20
2018-06-20T20:41:42.481Z,2.23
2018-06-20T20:44:09.588Z,2.37
2018-06-20T20:46:37.002Z,2.40
2018-06-20T20:49:04.106Z,2.67
2018-06-20T20:51:31.218Z,2.40
2018-06-20T20:53:58.365Z,2.30
2018-06-20T20:56:25.480Z,2.40
2018-06-20T20:58:52.604Z,2.40
2018-06-20T21:01:19.709Z,2.43
2018-06-20T21:03:46.816Z,2.50
2018-06-20T21:06:13.938Z,2.40
2018-06-20T21:08:41.049Z,2.47
2018-06-20T21:11:08.209Z,2.80
2018-06-20T21:13:35.313Z,2.43
2018-06-20T21:16:02.423Z,2.50
2018-06-20T21:18:29.528Z,2.20
2018-06-20T21:20:56.681Z,2.27
2018-06-20T21:23:23.800Z,2.40
2018-06-20T21:25:50.981Z,2.43
2018-06-20T21:28:18.109Z,2.60
2018-06-20T21:30:45.325Z,2.27
2018-06-20T21:33:12.472Z,2.50
2018-06-20T21:35:39.569Z,2.40
2018-06-20T21:38:06.692Z,2.33
2018-06-20T21:40:33.837Z,2.33
2018-06-20T21:43:00.985Z,2.20
2018-06-20T21:45:28.079Z,2.83
2018-06-20T21:47:55.181Z,2.60
2018-06-20T21:50:22.297Z,2.33
2018-06-20T21:52:49.391Z,2.60
2018-06-20T21:55:16.484Z,2.83
2018-06-20T21:57:43.628Z,2.27
2018-06-20T22:00:11.825Z,2.10
2018-06-20T22:02:39.065Z,2.90
2018-06-20T22:05:06.189Z,2.90
2018-06-20T22:07:33.289Z,2.77
2018-06-20T22:10:00.436Z,3.00
2018-06-20T22:12:27.529Z,3.30
2018-06-20T22:14:54.661Z,2.70
2018-06-20T22:17:21.765Z,2.77
2018-06-20T22:19:48.868Z,2.90
2018-06-20T22:22:15.965Z,2.97
2018-06-20T22:24:43.105Z,3.10
2018-06-20T22:27:10.192Z,2.70
2018-06-20T22:29:37.294Z,2.80
2018-06-20T22:32:04.432Z,2.67
2018-06-20T22:34:31.589Z,3.00
2018-06-20T22:36:58.789Z,3.13
2018-06-20T22:39:25.869Z,3.00
2018-06-20T22:41:52.978Z,2.70
2018-06-20T22:44:20.081Z,2.90
2018-06-20T22:46:47.188Z,3.23
2018-06-20T22:49:14.276Z,3.10
2018-06-20T22:51:41.380Z,3.30
2018-06-20T22:54:08.468Z,3.20
2018-06-20T22:56:35.592Z,3.20
2018-06-20T22:59:02.716Z,3.10
2018-06-20T23:01:29.828Z,3.10
2018-06-20T23:03:57.325Z,3.10
2018-06-20T23:06:24.811Z,3.17
2018-06-20T23:08:51.957Z,3.13
2018-06-20T23:11:19.068Z,3.03
2018-06-20T23:13:46.165Z,3.40
2018-06-20T23:16:13.273Z,3.40
2018-06-20T23:18:40.377Z,3.30
2018-06-20T23:21:07.485Z,4.00
2018-06-20T23:23:34.580Z,3.30
2018-06-20T23:26:01.674Z,3.23
2018-06-20T23:28:28.777Z,3.40
2018-06-20T23:30:55.881Z,3.60
2018-06-20T23:33:23.013Z,3.40
2018-06-20T23:35:50.108Z,3.40
2018-06-20T23:38:17.209Z,3.40
2018-06-20T23:40:44.297Z,3.33
2018-06-20T23:43:11.409Z,3.67
2018-06-20T23:45:38.508Z,3.30
2018-06-20T23:48:05.629Z,3.40
2018-06-20T23:50:32.748Z,3.67
2018-06-20T23:52:59.863Z,3.50
2018-06-20T23:55:26.957Z,3.63
2018-06-20T23:57:54.186Z,3.73
